DIBK

Bouaké Airport

Côte D’Ivoire
METAR DIBK 220400Z 18004KT 9999 SCT010 OVC100 21/21 Q1014 NOSIG
Observed Flight Rules
Jun-22 @ 04:00 UTC (2 hours ago) Visual Flight Rules
Wind Visibility Clouds
180° at 4 knots 10,000+ meters
  • Scattered at 1,000' AGL
  • Overcast at 10,000' AGL
Temperatures Readings
Current 21°C / 70°F
Dewpoint 21°C / 70°F
Humidity 100%
Altimeter 29.94" Hg
Pressure 1014 hPa
Elevation 376
METAR DIBK 220400Z 18004KT 9999 SCT010 OVC100 21/21 Q1014 NOSIG
Observed Flight Rules
Jun-22 @ 04:00 UTC
(2 hours ago)
VFR
Wind Visibility
180° at 4 knots 10,000+ meters
Clouds
  • Scattered at 1,000' AGL
  • Overcast at 10,000' AGL
Temperature Dewpoint
21°C / 70°F 21°C / 70°F
Humidity Altimeter Pressure
100% 29.94" Hg 1014 hPa